Belle Haven, Connecticut
Current Conditions -  °F | °C
As of 1:56 PM on Friday 28 Nov 2014 (Local Time) from KHPN Reporting Station
Scattered Clouds Scattered Clouds  
Wind Chill: 24°   Ceiling: Unl
Heat Index: 34°   Visibility: 10mi
Dew Point: 18°   Wind: 15mph
Humidity: 52%   Direction: 290°WNW
Pressure: 30.12"   Gusts: 24mph
Location:  41.0502°N, 73.6235°W
Report Text: KHPN 281856Z 29013G21KT 10SM SCT041 01/M08 A3012 RMK AO2 PK WND 30026/1842 SLP206 T00111078
Loading
Personal Weather Stations






























Interactive Weather Map New forecast layout! Learn more

10-Day Weather Forecast

Advertisements
Track Severe Weather on mobile